Terminal Aerodrome Forecast
Issued by NWS Sioux Falls, SD

Home | Current Version | Previous Version | Text Only | Print | Product List | Glossary Off
Versions: 1 2 3 4 5 6 7 8 9 10 11 12 13 14

000
FTUS43 KFSD 271730
TAFFSD
TAF
KFSD 271730Z 2718/2818 32015G22KT P6SM BKN080
     FM272300 30010KT P6SM BKN120
     FM280200 27007KT P6SM FEW120
     FM280900 28011KT P6SM BKN035
     FM281300 29018G25KT P6SM OVC030=

USA.gov is the U.S. government's official web portal to all federal, state and local government web resources and services.